sensor_id;sensor_type;location;lat;lon;timestamp;temperature;humidity
11229;DHT22;5671;47.936;8.716;2023-03-08T00:02:20;0.40;62.90
11229;DHT22;5671;47.936;8.716;2023-03-08T00:04:47;0.40;63.10
11229;DHT22;5671;47.936;8.716;2023-03-08T00:07:14;0.40;63.10
11229;DHT22;5671;47.936;8.716;2023-03-08T00:09:41;0.40;63.30
11229;DHT22;5671;47.936;8.716;2023-03-08T00:12:08;0.40;63.00
11229;DHT22;5671;47.936;8.716;2023-03-08T00:14:36;0.40;63.30
11229;DHT22;5671;47.936;8.716;2023-03-08T00:17:03;0.40;63.30
11229;DHT22;5671;47.936;8.716;2023-03-08T00:19:30;0.40;63.30
11229;DHT22;5671;47.936;8.716;2023-03-08T00:21:57;0.40;63.40
11229;DHT22;5671;47.936;8.716;2023-03-08T00:24:24;0.40;63.40
11229;DHT22;5671;47.936;8.716;2023-03-08T00:26:51;0.40;63.20
11229;DHT22;5671;47.936;8.716;2023-03-08T00:29:18;0.40;63.10
11229;DHT22;5671;47.936;8.716;2023-03-08T00:31:46;0.40;63.10
11229;DHT22;5671;47.936;8.716;2023-03-08T00:34:13;0.50;62.80
11229;DHT22;5671;47.936;8.716;2023-03-08T00:36:40;0.50;62.90
11229;DHT22;5671;47.936;8.716;2023-03-08T00:39:07;0.50;62.90
11229;DHT22;5671;47.936;8.716;2023-03-08T00:41:34;0.50;63.10
11229;DHT22;5671;47.936;8.716;2023-03-08T00:44:00;0.50;62.90
11229;DHT22;5671;47.936;8.716;2023-03-08T00:46:27;0.50;62.80
11229;DHT22;5671;47.936;8.716;2023-03-08T00:48:55;0.50;63.00
11229;DHT22;5671;47.936;8.716;2023-03-08T00:51:23;0.50;63.00
11229;DHT22;5671;47.936;8.716;2023-03-08T00:53:50;0.60;63.00
11229;DHT22;5671;47.936;8.716;2023-03-08T00:56:17;0.60;63.20
11229;DHT22;5671;47.936;8.716;2023-03-08T00:58:44;0.60;63.30
11229;DHT22;5671;47.936;8.716;2023-03-08T01:01:14;0.60;63.40
11229;DHT22;5671;47.936;8.716;2023-03-08T01:03:41;0.50;63.50
11229;DHT22;5671;47.936;8.716;2023-03-08T01:06:11;0.50;63.80
11229;DHT22;5671;47.936;8.716;2023-03-08T01:08:39;0.50;63.70
11229;DHT22;5671;47.936;8.716;2023-03-08T01:11:06;0.50;63.80
11229;DHT22;5671;47.936;8.716;2023-03-08T01:13:39;0.50;63.70
11229;DHT22;5671;47.936;8.716;2023-03-08T01:16:14;0.40;63.80
11229;DHT22;5671;47.936;8.716;2023-03-08T01:18:41;0.40;64.10
11229;DHT22;5671;47.936;8.716;2023-03-08T01:21:10;0.40;64.40
11229;DHT22;5671;47.936;8.716;2023-03-08T01:23:37;0.40;64.40
11229;DHT22;5671;47.936;8.716;2023-03-08T01:26:06;0.30;64.60
11229;DHT22;5671;47.936;8.716;2023-03-08T01:28:34;0.30;64.50
11229;DHT22;5671;47.936;8.716;2023-03-08T01:31:02;0.30;65.00
11229;DHT22;5671;47.936;8.716;2023-03-08T01:33:29;0.20;65.10
11229;DHT22;5671;47.936;8.716;2023-03-08T01:35:56;0.20;65.30
11229;DHT22;5671;47.936;8.716;2023-03-08T01:38:24;0.20;65.40
11229;DHT22;5671;47.936;8.716;2023-03-08T01:40:54;0.20;65.60
11229;DHT22;5671;47.936;8.716;2023-03-08T01:43:24;0.20;65.40
11229;DHT22;5671;47.936;8.716;2023-03-08T01:48:53;0.10;66.00
11229;DHT22;5671;47.936;8.716;2023-03-08T01:51:25;0.10;66.20
11229;DHT22;5671;47.936;8.716;2023-03-08T01:53:56;0.00;66.20
11229;DHT22;5671;47.936;8.716;2023-03-08T01:56:24;0.00;66.50
11229;DHT22;5671;47.936;8.716;2023-03-08T01:58:51;0.00;66.50
11229;DHT22;5671;47.936;8.716;2023-03-08T02:01:19;0.00;67.00
11229;DHT22;5671;47.936;8.716;2023-03-08T02:03:46;0.00;66.80
11229;DHT22;5671;47.936;8.716;2023-03-08T02:06:15;0.00;66.90
11229;DHT22;5671;47.936;8.716;2023-03-08T02:08:42;0.00;66.90
11229;DHT22;5671;47.936;8.716;2023-03-08T02:11:12;0.00;66.90
11229;DHT22;5671;47.936;8.716;2023-03-08T02:13:40;-0.10;67.00
11229;DHT22;5671;47.936;8.716;2023-03-08T02:16:11;-0.10;67.20
11229;DHT22;5671;47.936;8.716;2023-03-08T02:18:51;-0.10;67.20
11229;DHT22;5671;47.936;8.716;2023-03-08T02:21:18;-0.20;67.50
11229;DHT22;5671;47.936;8.716;2023-03-08T02:23:47;-0.20;67.80
11229;DHT22;5671;47.936;8.716;2023-03-08T02:26:14;-0.20;67.70
11229;DHT22;5671;47.936;8.716;2023-03-08T02:28:41;-0.30;67.80
11229;DHT22;5671;47.936;8.716;2023-03-08T02:31:08;-0.30;67.90
11229;DHT22;5671;47.936;8.716;2023-03-08T02:33:35;-0.40;68.00
11229;DHT22;5671;47.936;8.716;2023-03-08T02:36:03;-0.40;68.10
11229;DHT22;5671;47.936;8.716;2023-03-08T02:38:30;-0.40;68.40
11229;DHT22;5671;47.936;8.716;2023-03-08T02:40:59;-0.50;68.90
11229;DHT22;5671;47.936;8.716;2023-03-08T02:43:26;-0.50;69.00
11229;DHT22;5671;47.936;8.716;2023-03-08T02:45:53;-0.50;68.90
11229;DHT22;5671;47.936;8.716;2023-03-08T02:48:20;-0.50;68.90
11229;DHT22;5671;47.936;8.716;2023-03-08T02:50:47;-0.40;68.90
11229;DHT22;5671;47.936;8.716;2023-03-08T02:53:13;-0.40;69.00
11229;DHT22;5671;47.936;8.716;2023-03-08T02:55:40;-0.50;68.50
11229;DHT22;5671;47.936;8.716;2023-03-08T02:58:09;-0.50;68.60
11229;DHT22;5671;47.936;8.716;2023-03-08T03:00:36;-0.50;68.70
11229;DHT22;5671;47.936;8.716;2023-03-08T03:03:03;-0.50;69.10
11229;DHT22;5671;47.936;8.716;2023-03-08T03:05:30;-0.50;68.90
11229;DHT22;5671;47.936;8.716;2023-03-08T03:07:57;-0.50;68.90
11229;DHT22;5671;47.936;8.716;2023-03-08T03:10:24;-0.40;68.70
11229;DHT22;5671;47.936;8.716;2023-03-08T03:12:51;-0.40;69.10
11229;DHT22;5671;47.936;8.716;2023-03-08T03:15:20;-0.40;69.10
11229;DHT22;5671;47.936;8.716;2023-03-08T03:17:47;-0.40;68.70
11229;DHT22;5671;47.936;8.716;2023-03-08T03:20:14;-0.40;69.00
11229;DHT22;5671;47.936;8.716;2023-03-08T03:22:41;-0.40;69.00
11229;DHT22;5671;47.936;8.716;2023-03-08T03:25:09;-0.40;69.10
11229;DHT22;5671;47.936;8.716;2023-03-08T03:27:36;-0.40;68.80
11229;DHT22;5671;47.936;8.716;2023-03-08T03:30:04;-0.40;67.20
11229;DHT22;5671;47.936;8.716;2023-03-08T03:32:33;-0.50;68.80
11229;DHT22;5671;47.936;8.716;2023-03-08T03:35:00;-0.50;68.60
11229;DHT22;5671;47.936;8.716;2023-03-08T03:37:27;-0.50;68.50
11229;DHT22;5671;47.936;8.716;2023-03-08T03:39:54;-0.60;68.80
11229;DHT22;5671;47.936;8.716;2023-03-08T03:42:21;-0.60;69.40
11229;DHT22;5671;47.936;8.716;2023-03-08T03:44:47;-0.60;67.50
11229;DHT22;5671;47.936;8.716;2023-03-08T03:47:14;-0.60;67.60
11229;DHT22;5671;47.936;8.716;2023-03-08T03:49:42;-0.60;68.20
11229;DHT22;5671;47.936;8.716;2023-03-08T03:52:09;-0.70;67.50
11229;DHT22;5671;47.936;8.716;2023-03-08T03:54:36;-0.70;68.80
11229;DHT22;5671;47.936;8.716;2023-03-08T03:57:03;-0.70;68.70
11229;DHT22;5671;47.936;8.716;2023-03-08T03:59:30;-0.70;68.80
11229;DHT22;5671;47.936;8.716;2023-03-08T04:01:58;-0.70;69.80
11229;DHT22;5671;47.936;8.716;2023-03-08T04:04:25;-0.70;68.90
11229;DHT22;5671;47.936;8.716;2023-03-08T04:06:53;-0.70;70.20
11229;DHT22;5671;47.936;8.716;2023-03-08T04:09:20;-0.70;70.30
11229;DHT22;5671;47.936;8.716;2023-03-08T04:11:47;-0.70;69.10
11229;DHT22;5671;47.936;8.716;2023-03-08T04:14:14;-0.70;69.30
11229;DHT22;5671;47.936;8.716;2023-03-08T04:16:41;-0.70;69.20
11229;DHT22;5671;47.936;8.716;2023-03-08T04:19:11;-0.70;68.60
11229;DHT22;5671;47.936;8.716;2023-03-08T04:21:38;-0.70;68.90
11229;DHT22;5671;47.936;8.716;2023-03-08T04:24:07;-0.70;68.50
11229;DHT22;5671;47.936;8.716;2023-03-08T04:26:34;-0.70;70.50
11229;DHT22;5671;47.936;8.716;2023-03-08T04:29:02;-0.80;70.90
11229;DHT22;5671;47.936;8.716;2023-03-08T04:31:32;-0.80;71.00
11229;DHT22;5671;47.936;8.716;2023-03-08T04:34:00;-0.80;70.60
11229;DHT22;5671;47.936;8.716;2023-03-08T04:36:27;-0.80;69.30
11229;DHT22;5671;47.936;8.716;2023-03-08T04:38:54;-0.90;70.80
11229;DHT22;5671;47.936;8.716;2023-03-08T04:41:22;-0.90;69.60
11229;DHT22;5671;47.936;8.716;2023-03-08T04:43:50;-0.90;69.80
11229;DHT22;5671;47.936;8.716;2023-03-08T04:46:19;-0.90;70.80
11229;DHT22;5671;47.936;8.716;2023-03-08T04:48:46;-0.80;70.20
11229;DHT22;5671;47.936;8.716;2023-03-08T04:51:15;-0.80;69.90
11229;DHT22;5671;47.936;8.716;2023-03-08T04:53:42;-0.80;71.00
11229;DHT22;5671;47.936;8.716;2023-03-08T04:56:10;-0.80;71.70
11229;DHT22;5671;47.936;8.716;2023-03-08T04:58:39;-0.90;71.70
11229;DHT22;5671;47.936;8.716;2023-03-08T05:01:10;-0.90;72.00
11229;DHT22;5671;47.936;8.716;2023-03-08T05:03:37;-0.90;71.50
11229;DHT22;5671;47.936;8.716;2023-03-08T05:06:04;-0.90;70.70
11229;DHT22;5671;47.936;8.716;2023-03-08T05:08:34;-0.80;70.50
11229;DHT22;5671;47.936;8.716;2023-03-08T05:11:02;-0.80;70.40
11229;DHT22;5671;47.936;8.716;2023-03-08T05:13:31;-0.80;70.70
11229;DHT22;5671;47.936;8.716;2023-03-08T05:16:00;-0.80;71.50
11229;DHT22;5671;47.936;8.716;2023-03-08T05:18:27;-0.80;70.90
11229;DHT22;5671;47.936;8.716;2023-03-08T05:20:55;-0.80;71.30
11229;DHT22;5671;47.936;8.716;2023-03-08T05:23:22;-0.80;71.20
11229;DHT22;5671;47.936;8.716;2023-03-08T05:25:52;-0.80;71.80
11229;DHT22;5671;47.936;8.716;2023-03-08T05:28:20;-0.70;70.90
11229;DHT22;5671;47.936;8.716;2023-03-08T05:30:47;-0.70;70.50
11229;DHT22;5671;47.936;8.716;2023-03-08T05:33:16;-0.70;70.10
11229;DHT22;5671;47.936;8.716;2023-03-08T05:35:50;-0.70;70.30
11229;DHT22;5671;47.936;8.716;2023-03-08T05:38:17;-0.70;71.30
11229;DHT22;5671;47.936;8.716;2023-03-08T05:40:44;-0.70;71.20
11229;DHT22;5671;47.936;8.716;2023-03-08T05:43:11;-0.60;71.50
11229;DHT22;5671;47.936;8.716;2023-03-08T05:45:37;-0.70;71.40
11229;DHT22;5671;47.936;8.716;2023-03-08T05:48:05;-0.60;72.30
11229;DHT22;5671;47.936;8.716;2023-03-08T05:50:33;-0.60;71.00
11229;DHT22;5671;47.936;8.716;2023-03-08T05:53:00;-0.60;71.80
11229;DHT22;5671;47.936;8.716;2023-03-08T05:55:27;-0.60;72.40
11229;DHT22;5671;47.936;8.716;2023-03-08T05:57:54;-0.60;72.60
11229;DHT22;5671;47.936;8.716;2023-03-08T06:00:21;-0.60;71.90
11229;DHT22;5671;47.936;8.716;2023-03-08T06:02:48;-0.60;72.20
11229;DHT22;5671;47.936;8.716;2023-03-08T06:05:15;-0.50;73.00
11229;DHT22;5671;47.936;8.716;2023-03-08T06:07:43;-0.50;73.80
11229;DHT22;5671;47.936;8.716;2023-03-08T06:10:10;-0.40;73.30
11229;DHT22;5671;47.936;8.716;2023-03-08T06:12:37;-0.30;74.10
11229;DHT22;5671;47.936;8.716;2023-03-08T06:15:05;-0.30;73.20
11229;DHT22;5671;47.936;8.716;2023-03-08T06:17:32;-0.30;73.30
11229;DHT22;5671;47.936;8.716;2023-03-08T06:19:59;-0.20;72.70
11229;DHT22;5671;47.936;8.716;2023-03-08T06:22:26;-0.20;73.40
11229;DHT22;5671;47.936;8.716;2023-03-08T06:24:54;-0.10;73.60
11229;DHT22;5671;47.936;8.716;2023-03-08T06:27:21;-0.10;73.40
11229;DHT22;5671;47.936;8.716;2023-03-08T06:29:48;0.00;74.10
11229;DHT22;5671;47.936;8.716;2023-03-08T06:32:15;0.00;73.90
11229;DHT22;5671;47.936;8.716;2023-03-08T06:34:42;0.10;73.60
11229;DHT22;5671;47.936;8.716;2023-03-08T06:37:09;0.10;74.10
11229;DHT22;5671;47.936;8.716;2023-03-08T06:39:36;0.20;73.80
11229;DHT22;5671;47.936;8.716;2023-03-08T06:42:05;0.20;73.50
11229;DHT22;5671;47.936;8.716;2023-03-08T06:44:32;0.30;73.20
11229;DHT22;5671;47.936;8.716;2023-03-08T06:46:58;0.30;73.50
11229;DHT22;5671;47.936;8.716;2023-03-08T06:49:25;0.40;72.80
11229;DHT22;5671;47.936;8.716;2023-03-08T06:51:52;0.50;72.60
11229;DHT22;5671;47.936;8.716;2023-03-08T06:54:20;0.50;72.20
11229;DHT22;5671;47.936;8.716;2023-03-08T06:56:48;0.50;71.90
11229;DHT22;5671;47.936;8.716;2023-03-08T06:59:17;0.60;72.10
11229;DHT22;5671;47.936;8.716;2023-03-08T07:01:43;0.70;72.50
11229;DHT22;5671;47.936;8.716;2023-03-08T07:04:10;0.70;72.10
11229;DHT22;5671;47.936;8.716;2023-03-08T07:06:37;0.80;72.50
11229;DHT22;5671;47.936;8.716;2023-03-08T07:09:04;0.90;72.20
11229;DHT22;5671;47.936;8.716;2023-03-08T07:11:31;0.90;72.40
11229;DHT22;5671;47.936;8.716;2023-03-08T07:13:58;1.00;72.40
11229;DHT22;5671;47.936;8.716;2023-03-08T07:16:27;1.10;72.00
11229;DHT22;5671;47.936;8.716;2023-03-08T07:18:54;1.20;71.40
11229;DHT22;5671;47.936;8.716;2023-03-08T07:21:21;1.40;71.00
11229;DHT22;5671;47.936;8.716;2023-03-08T07:23:50;1.40;71.00
11229;DHT22;5671;47.936;8.716;2023-03-08T07:26:17;1.60;70.30
11229;DHT22;5671;47.936;8.716;2023-03-08T07:28:47;1.70;70.00
11229;DHT22;5671;47.936;8.716;2023-03-08T07:31:16;1.80;69.70
11229;DHT22;5671;47.936;8.716;2023-03-08T07:33:44;1.90;69.60
11229;DHT22;5671;47.936;8.716;2023-03-08T07:36:11;2.10;69.20
11229;DHT22;5671;47.936;8.716;2023-03-08T07:38:40;2.20;69.00
11229;DHT22;5671;47.936;8.716;2023-03-08T07:41:06;2.30;68.40
11229;DHT22;5671;47.936;8.716;2023-03-08T07:43:34;2.40;68.50
11229;DHT22;5671;47.936;8.716;2023-03-08T07:46:01;2.40;68.00
11229;DHT22;5671;47.936;8.716;2023-03-08T07:48:29;2.50;67.70
11229;DHT22;5671;47.936;8.716;2023-03-08T07:51:00;2.50;67.50
11229;DHT22;5671;47.936;8.716;2023-03-08T07:53:28;2.60;67.90
11229;DHT22;5671;47.936;8.716;2023-03-08T07:55:57;2.70;67.40
11229;DHT22;5671;47.936;8.716;2023-03-08T07:58:24;2.80;67.00
11229;DHT22;5671;47.936;8.716;2023-03-08T08:00:51;2.80;66.80
11229;DHT22;5671;47.936;8.716;2023-03-08T08:03:20;2.80;66.80
11229;DHT22;5671;47.936;8.716;2023-03-08T08:05:47;2.90;67.00
11229;DHT22;5671;47.936;8.716;2023-03-08T08:08:15;2.90;66.90
11229;DHT22;5671;47.936;8.716;2023-03-08T08:10:42;3.00;66.70
11229;DHT22;5671;47.936;8.716;2023-03-08T08:13:09;3.00;66.70
11229;DHT22;5671;47.936;8.716;2023-03-08T08:15:36;3.10;66.40
11229;DHT22;5671;47.936;8.716;2023-03-08T08:18:03;3.20;66.60
11229;DHT22;5671;47.936;8.716;2023-03-08T08:20:30;3.30;66.70
11229;DHT22;5671;47.936;8.716;2023-03-08T08:22:57;3.30;65.90
11229;DHT22;5671;47.936;8.716;2023-03-08T08:25:25;3.50;66.70
11229;DHT22;5671;47.936;8.716;2023-03-08T08:27:52;3.70;66.20
11229;DHT22;5671;47.936;8.716;2023-03-08T08:30:19;3.90;65.90
11229;DHT22;5671;47.936;8.716;2023-03-08T08:32:46;4.10;65.70
11229;DHT22;5671;47.936;8.716;2023-03-08T08:35:13;4.20;64.70
11229;DHT22;5671;47.936;8.716;2023-03-08T08:37:40;4.20;63.90
11229;DHT22;5671;47.936;8.716;2023-03-08T08:40:08;4.30;63.90
11229;DHT22;5671;47.936;8.716;2023-03-08T08:42:37;4.40;63.80
11229;DHT22;5671;47.936;8.716;2023-03-08T08:45:05;4.40;63.90
11229;DHT22;5671;47.936;8.716;2023-03-08T08:47:32;4.50;64.60
11229;DHT22;5671;47.936;8.716;2023-03-08T08:49:59;4.50;65.40
11229;DHT22;5671;47.936;8.716;2023-03-08T08:52:26;4.50;65.50
11229;DHT22;5671;47.936;8.716;2023-03-08T08:54:53;4.50;66.20
11229;DHT22;5671;47.936;8.716;2023-03-08T08:57:21;4.50;66.00
11229;DHT22;5671;47.936;8.716;2023-03-08T08:59:49;4.50;66.20
11229;DHT22;5671;47.936;8.716;2023-03-08T09:02:16;4.60;66.30
11229;DHT22;5671;47.936;8.716;2023-03-08T09:04:43;4.50;66.60
11229;DHT22;5671;47.936;8.716;2023-03-08T09:07:10;4.60;66.90
11229;DHT22;5671;47.936;8.716;2023-03-08T09:09:37;4.60;67.70
11229;DHT22;5671;47.936;8.716;2023-03-08T09:12:04;4.50;67.80
11229;DHT22;5671;47.936;8.716;2023-03-08T09:14:31;4.50;68.40
11229;DHT22;5671;47.936;8.716;2023-03-08T09:17:00;4.50;68.50
11229;DHT22;5671;47.936;8.716;2023-03-08T09:19:27;4.60;68.80
11229;DHT22;5671;47.936;8.716;2023-03-08T09:21:54;4.60;68.50
11229;DHT22;5671;47.936;8.716;2023-03-08T09:24:21;4.60;68.80
11229;DHT22;5671;47.936;8.716;2023-03-08T09:26:48;4.60;69.00
11229;DHT22;5671;47.936;8.716;2023-03-08T09:29:15;4.60;69.10
11229;DHT22;5671;47.936;8.716;2023-03-08T09:31:42;4.70;69.30
11229;DHT22;5671;47.936;8.716;2023-03-08T09:34:12;4.70;69.10
11229;DHT22;5671;47.936;8.716;2023-03-08T09:36:40;4.80;69.80
11229;DHT22;5671;47.936;8.716;2023-03-08T09:39:08;4.80;71.80
11229;DHT22;5671;47.936;8.716;2023-03-08T09:41:48;4.80;74.00
11229;DHT22;5671;47.936;8.716;2023-03-08T09:44:38;4.70;73.00
11229;DHT22;5671;47.936;8.716;2023-03-08T09:47:16;4.70;74.10
11229;DHT22;5671;47.936;8.716;2023-03-08T09:49:48;4.70;73.60
11229;DHT22;5671;47.936;8.716;2023-03-08T09:52:21;4.80;74.00
11229;DHT22;5671;47.936;8.716;2023-03-08T09:54:49;4.90;73.50
11229;DHT22;5671;47.936;8.716;2023-03-08T09:57:21;4.90;73.40
11229;DHT22;5671;47.936;8.716;2023-03-08T09:59:53;5.00;73.50
11229;DHT22;5671;47.936;8.716;2023-03-08T10:02:29;5.10;73.00
11229;DHT22;5671;47.936;8.716;2023-03-08T10:05:04;5.20;72.40
11229;DHT22;5671;47.936;8.716;2023-03-08T10:07:44;5.20;72.20
11229;DHT22;5671;47.936;8.716;2023-03-08T10:10:26;5.30;73.00
11229;DHT22;5671;47.936;8.716;2023-03-08T10:13:06;5.30;72.50
11229;DHT22;5671;47.936;8.716;2023-03-08T10:15:39;5.30;72.70
11229;DHT22;5671;47.936;8.716;2023-03-08T10:18:12;5.40;74.20
11229;DHT22;5671;47.936;8.716;2023-03-08T10:20:42;5.40;75.10
11229;DHT22;5671;47.936;8.716;2023-03-08T10:23:13;5.30;75.80
11229;DHT22;5671;47.936;8.716;2023-03-08T10:25:41;5.30;74.90
11229;DHT22;5671;47.936;8.716;2023-03-08T10:28:11;5.30;75.50
11229;DHT22;5671;47.936;8.716;2023-03-08T10:30:43;5.30;75.70
11229;DHT22;5671;47.936;8.716;2023-03-08T10:33:11;5.30;75.00
11229;DHT22;5671;47.936;8.716;2023-03-08T10:35:56;5.30;75.70
11229;DHT22;5671;47.936;8.716;2023-03-08T10:38:26;5.30;75.20
11229;DHT22;5671;47.936;8.716;2023-03-08T10:41:01;5.30;75.80
11229;DHT22;5671;47.936;8.716;2023-03-08T10:43:30;5.30;76.50
11229;DHT22;5671;47.936;8.716;2023-03-08T10:46:02;5.30;76.50
11229;DHT22;5671;47.936;8.716;2023-03-08T10:48:30;5.30;76.80
11229;DHT22;5671;47.936;8.716;2023-03-08T10:51:00;5.30;76.90
11229;DHT22;5671;47.936;8.716;2023-03-08T10:53:28;5.40;77.20
11229;DHT22;5671;47.936;8.716;2023-03-08T10:55:57;5.40;77.20
11229;DHT22;5671;47.936;8.716;2023-03-08T10:58:34;5.40;77.70
11229;DHT22;5671;47.936;8.716;2023-03-08T11:01:04;5.50;77.50
11229;DHT22;5671;47.936;8.716;2023-03-08T11:03:32;5.50;77.20
11229;DHT22;5671;47.936;8.716;2023-03-08T11:06:02;5.60;78.00
11229;DHT22;5671;47.936;8.716;2023-03-08T11:08:36;5.60;78.20
11229;DHT22;5671;47.936;8.716;2023-03-08T11:11:08;5.70;78.50
11229;DHT22;5671;47.936;8.716;2023-03-08T11:13:36;5.70;78.60
11229;DHT22;5671;47.936;8.716;2023-03-08T11:16:36;5.80;79.10
11229;DHT22;5671;47.936;8.716;2023-03-08T11:19:25;5.80;79.20
11229;DHT22;5671;47.936;8.716;2023-03-08T11:22:13;5.80;79.40
11229;DHT22;5671;47.936;8.716;2023-03-08T11:24:53;5.90;79.80
11229;DHT22;5671;47.936;8.716;2023-03-08T11:27:35;5.90;79.80
11229;DHT22;5671;47.936;8.716;2023-03-08T11:30:15;6.00;80.60
11229;DHT22;5671;47.936;8.716;2023-03-08T11:32:54;5.90;80.90
11229;DHT22;5671;47.936;8.716;2023-03-08T11:35:27;5.90;81.40
11229;DHT22;5671;47.936;8.716;2023-03-08T11:38:08;6.00;80.70
11229;DHT22;5671;47.936;8.716;2023-03-08T11:40:46;6.00;80.90
11229;DHT22;5671;47.936;8.716;2023-03-08T11:43:59;6.00;81.20
11229;DHT22;5671;47.936;8.716;2023-03-08T11:46:39;6.10;81.50
11229;DHT22;5671;47.936;8.716;2023-03-08T11:49:30;6.10;81.40
11229;DHT22;5671;47.936;8.716;2023-03-08T11:52:02;6.10;81.20
11229;DHT22;5671;47.936;8.716;2023-03-08T11:57:39;6.20;82.10
11229;DHT22;5671;47.936;8.716;2023-03-08T12:00:13;6.20;82.40
11229;DHT22;5671;47.936;8.716;2023-03-08T12:02:50;6.20;82.10
11229;DHT22;5671;47.936;8.716;2023-03-08T12:05:25;6.30;82.20
11229;DHT22;5671;47.936;8.716;2023-03-08T12:07:59;6.20;83.20
11229;DHT22;5671;47.936;8.716;2023-03-08T12:10:29;6.30;82.90
11229;DHT22;5671;47.936;8.716;2023-03-08T12:13:05;6.20;83.70
11229;DHT22;5671;47.936;8.716;2023-03-08T12:15:38;6.20;83.90
11229;DHT22;5671;47.936;8.716;2023-03-08T12:18:13;6.30;84.50
11229;DHT22;5671;47.936;8.716;2023-03-08T12:20:42;6.20;84.20
11229;DHT22;5671;47.936;8.716;2023-03-08T12:23:27;6.20;84.50
11229;DHT22;5671;47.936;8.716;2023-03-08T12:26:03;6.20;84.70
11229;DHT22;5671;47.936;8.716;2023-03-08T12:28:39;6.30;84.20
11229;DHT22;5671;47.936;8.716;2023-03-08T12:31:20;6.30;84.30
11229;DHT22;5671;47.936;8.716;2023-03-08T12:33:50;6.30;84.40
11229;DHT22;5671;47.936;8.716;2023-03-08T12:36:18;6.30;84.50
11229;DHT22;5671;47.936;8.716;2023-03-08T12:39:05;6.40;84.10
11229;DHT22;5671;47.936;8.716;2023-03-08T12:41:32;6.40;83.80
11229;DHT22;5671;47.936;8.716;2023-03-08T12:44:04;6.50;84.20
11229;DHT22;5671;47.936;8.716;2023-03-08T12:46:49;6.60;84.10
11229;DHT22;5671;47.936;8.716;2023-03-08T12:49:33;6.70;83.80
11229;DHT22;5671;47.936;8.716;2023-03-08T12:52:04;6.70;83.90
11229;DHT22;5671;47.936;8.716;2023-03-08T12:54:33;6.70;84.10
11229;DHT22;5671;47.936;8.716;2023-03-08T12:57:02;6.80;83.50
11229;DHT22;5671;47.936;8.716;2023-03-08T12:59:40;6.80;83.50
11229;DHT22;5671;47.936;8.716;2023-03-08T13:02:27;6.90;83.70
11229;DHT22;5671;47.936;8.716;2023-03-08T13:05:18;7.00;83.40
11229;DHT22;5671;47.936;8.716;2023-03-08T13:08:05;7.10;83.20
11229;DHT22;5671;47.936;8.716;2023-03-08T13:10:56;7.10;83.20
11229;DHT22;5671;47.936;8.716;2023-03-08T13:13:27;7.20;82.80
11229;DHT22;5671;47.936;8.716;2023-03-08T13:16:16;7.20;81.70
11229;DHT22;5671;47.936;8.716;2023-03-08T13:18:45;7.20;82.00
11229;DHT22;5671;47.936;8.716;2023-03-08T13:21:24;7.20;81.80
11229;DHT22;5671;47.936;8.716;2023-03-08T13:23:56;7.20;82.20
11229;DHT22;5671;47.936;8.716;2023-03-08T13:29:30;7.20;82.30
11229;DHT22;5671;47.936;8.716;2023-03-08T13:32:04;7.10;85.10
11229;DHT22;5671;47.936;8.716;2023-03-08T13:34:32;7.00;85.30
11229;DHT22;5671;47.936;8.716;2023-03-08T13:40:16;6.90;84.50
11229;DHT22;5671;47.936;8.716;2023-03-08T13:42:52;6.90;84.20
11229;DHT22;5671;47.936;8.716;2023-03-08T13:45:19;6.90;84.50
11229;DHT22;5671;47.936;8.716;2023-03-08T13:49:08;6.80;85.00
11229;DHT22;5671;47.936;8.716;2023-03-08T13:51:16;6.80;85.40
11229;DHT22;5671;47.936;8.716;2023-03-08T13:53:46;6.80;86.00
11229;DHT22;5671;47.936;8.716;2023-03-08T13:59:28;6.70;86.30
11229;DHT22;5671;47.936;8.716;2023-03-08T14:01:55;6.70;86.20
11229;DHT22;5671;47.936;8.716;2023-03-08T14:04:25;6.70;86.20
11229;DHT22;5671;47.936;8.716;2023-03-08T14:10:12;6.70;86.70
11229;DHT22;5671;47.936;8.716;2023-03-08T14:12:39;6.80;86.60
11229;DHT22;5671;47.936;8.716;2023-03-08T14:15:06;6.90;86.60
11229;DHT22;5671;47.936;8.716;2023-03-08T14:17:34;7.00;86.10
11229;DHT22;5671;47.936;8.716;2023-03-08T14:20:14;7.10;85.30
11229;DHT22;5671;47.936;8.716;2023-03-08T14:22:45;7.20;85.50
11229;DHT22;5671;47.936;8.716;2023-03-08T14:25:21;7.30;85.00
11229;DHT22;5671;47.936;8.716;2023-03-08T14:27:49;7.40;84.10
11229;DHT22;5671;47.936;8.716;2023-03-08T14:30:18;7.40;83.50
11229;DHT22;5671;47.936;8.716;2023-03-08T14:33:01;7.40;83.70
11229;DHT22;5671;47.936;8.716;2023-03-08T14:35:31;7.40;83.70
11229;DHT22;5671;47.936;8.716;2023-03-08T14:37:59;7.40;83.70
11229;DHT22;5671;47.936;8.716;2023-03-08T14:40:31;7.40;83.80
11229;DHT22;5671;47.936;8.716;2023-03-08T14:43:02;7.40;84.30
11229;DHT22;5671;47.936;8.716;2023-03-08T14:45:34;7.40;84.50
11229;DHT22;5671;47.936;8.716;2023-03-08T14:48:20;7.50;84.30
11229;DHT22;5671;47.936;8.716;2023-03-08T14:50:55;7.50;84.30
11229;DHT22;5671;47.936;8.716;2023-03-08T14:53:28;7.60;84.60
11229;DHT22;5671;47.936;8.716;2023-03-08T14:55:56;7.70;84.30
11229;DHT22;5671;47.936;8.716;2023-03-08T14:58:26;7.70;83.10
11229;DHT22;5671;47.936;8.716;2023-03-08T15:00:56;7.70;82.90
11229;DHT22;5671;47.936;8.716;2023-03-08T15:03:23;7.80;83.40
11229;DHT22;5671;47.936;8.716;2023-03-08T15:05:52;7.90;82.90
11229;DHT22;5671;47.936;8.716;2023-03-08T15:08:20;7.80;82.30
11229;DHT22;5671;47.936;8.716;2023-03-08T15:10:48;7.90;82.60
11229;DHT22;5671;47.936;8.716;2023-03-08T15:13:17;7.80;82.50
11229;DHT22;5671;47.936;8.716;2023-03-08T15:15:44;7.80;82.20
11229;DHT22;5671;47.936;8.716;2023-03-08T15:18:11;7.80;82.70
11229;DHT22;5671;47.936;8.716;2023-03-08T15:20:41;7.80;82.90
11229;DHT22;5671;47.936;8.716;2023-03-08T15:23:18;7.70;82.90
11229;DHT22;5671;47.936;8.716;2023-03-08T15:25:49;7.70;82.90
11229;DHT22;5671;47.936;8.716;2023-03-08T15:28:18;7.70;82.40
11229;DHT22;5671;47.936;8.716;2023-03-08T15:30:46;7.60;82.80
11229;DHT22;5671;47.936;8.716;2023-03-08T15:33:13;7.60;83.80
11229;DHT22;5671;47.936;8.716;2023-03-08T15:35:40;7.60;84.40
11229;DHT22;5671;47.936;8.716;2023-03-08T15:38:11;7.50;84.40
11229;DHT22;5671;47.936;8.716;2023-03-08T15:40:39;7.40;84.60
11229;DHT22;5671;47.936;8.716;2023-03-08T15:43:42;7.30;85.10
11229;DHT22;5671;47.936;8.716;2023-03-08T15:49:55;7.30;85.50
11229;DHT22;5671;47.936;8.716;2023-03-08T15:55:43;7.10;86.60
11229;DHT22;5671;47.936;8.716;2023-03-08T15:58:11;7.10;86.40
11229;DHT22;5671;47.936;8.716;2023-03-08T16:00:40;7.10;86.50
11229;DHT22;5671;47.936;8.716;2023-03-08T16:03:16;7.10;86.90
11229;DHT22;5671;47.936;8.716;2023-03-08T16:05:52;7.10;86.30
11229;DHT22;5671;47.936;8.716;2023-03-08T16:08:32;7.00;86.80
11229;DHT22;5671;47.936;8.716;2023-03-08T16:11:10;7.00;86.90
11229;DHT22;5671;47.936;8.716;2023-03-08T16:13:40;7.00;86.90
11229;DHT22;5671;47.936;8.716;2023-03-08T16:16:12;7.00;87.30
11229;DHT22;5671;47.936;8.716;2023-03-08T16:18:59;6.90;87.80
11229;DHT22;5671;47.936;8.716;2023-03-08T16:21:32;6.90;87.90
11229;DHT22;5671;47.936;8.716;2023-03-08T16:27:33;6.90;87.90
11229;DHT22;5671;47.936;8.716;2023-03-08T16:30:01;6.90;87.70
11229;DHT22;5671;47.936;8.716;2023-03-08T16:32:28;6.90;87.80
11229;DHT22;5671;47.936;8.716;2023-03-08T16:34:56;6.90;87.60
11229;DHT22;5671;47.936;8.716;2023-03-08T16:37:23;6.90;87.50
11229;DHT22;5671;47.936;8.716;2023-03-08T16:39:52;6.90;88.00
11229;DHT22;5671;47.936;8.716;2023-03-08T16:42:22;6.90;87.80
11229;DHT22;5671;47.936;8.716;2023-03-08T16:44:51;6.90;87.90
11229;DHT22;5671;47.936;8.716;2023-03-08T16:47:19;6.80;88.30